Loyal, WI

4:17 PM CDT on August 30, 2014 (GMT -0500)
Marshfield Municipal | Change Station
CLOSE
Current Station
Airport
Location: Marshfield,
Elevation: 1276 ft
Nearby Weather Stations

Elev 1276 ft 44.64 °N, 90.19 °W | Updated 23 minutes ago

Clear
Clear
75 °F
Feels Like 75 °F
N
13
Wind Variable Wind from NNW
Gusts 22 mph

Today
High -- | Low -- °F
--% Chance of Precip.
Yesterday
High -- | Low -- °F
Precip. -- in
6:21 AM 7:42 PM
Waxing Crescent, 24% visible
Pressure 29.81 in
Visibility 10.0 miles
Clouds Clear
Dew Point 65 °F
Humidity 71%
Rainfall 0.52 in
Snow Depth Not available.
UV 5 out of 12
Pollen 5.40 out of 12
Air Quality Not available.
Flu Activity Not available.
METAR KMFI 302054Z AUTO 33011G19KT 10SM CLR 24/18 A2982 RMK AO2 SLP092 T02390183 53007

More Conditions Fewer Conditions

Pressure 29.81 in
Visibility 10.0 miles
Clouds Clear
Dew Point 65 °F
Humidity 71%
Rainfall 0.52 in
Snow Depth Not available.
UV 5 out of 12
Pollen 5.40 out of 12
Air Quality Not available.
Flu Activity Not available.
METAR KMFI 302054Z AUTO 33011G19KT 10SM CLR 24/18 A2982 RMK AO2 SLP092 T02390183 53007

More Conditions Fewer Conditions

10-Day Weather Forecast

Almanac

Astronomy

Aug. 30, 2014 Rise Set
Actual Time 6:21 AM CDT 7:42 PM CDT
Civil Twilight 5:51 AM CDT 8:12 PM CDT
Nautical Twilight 5:15 AM CDT 8:48 PM CDT
Astronomical Twilight 4:36 AM CDT 9:27 PM CDT
Moon 11:23 AM CDT 10:02 PM CDT
Length of Visible Light 14h 20m
Length of Day
13h 20m
Tomorrow will be 2m 58s shorter.
Waxing Crescent, 24% of the Moon is Illuminated
Today
Waxing Crescent
Sep 2
First Quarter
Sep 8
Full
Sep 15
Last Quarter
Sep 24
New

Today's Extremes

State Highs State Lows

Community

WunderPhotos

Upload Photos

1,748,634 photos uploaded!

WunderBlogs® & News

Nearby

Snow Depth

Station Depth Elevation
No new snow has been reported.

Earthquake Activity

City Distance Mag. Time & Date
No recent earthquake activity has been reported nearby.
Minimum magnitude displayed is 2.5.

Coastal Water Temperatures

Place Temperature
No Stations Reporting

Nearby Weather Stations